Preston, MN

3:26 AM CST on February 23, 2017 (GMT -0600)
Preston

Weather History for KFKA - December, 2013

Change the Weather History Date:

Saturday, December 21, 2013

  Actual Average (KRST) Record (KRST)
Temperature  
Mean Temperature 21 °F -  
Max Temperature 23 °F 22 °F 52 °F (1941)
Min Temperature 19 °F 5 °F -28 °F (1916)
Degree Days  
Heating Degree Days 44    
Moisture  
Dew Point 19 °F    
Average Humidity 91    
Maximum Humidity 95    
Minimum Humidity 84    
Precipitation  
Precipitation 0.00 in - - ()
Sea Level Pressure  
Sea Level Pressure 29.84 in    
Wind  
Wind Speed 5 mph (NNE)    
Max Wind Speed 14 mph    
Max Gust Speed 20 mph    
Visibility 6 miles    
Events      
Averages and records for this station are not official NWS values.
T = Trace of Precipitation, MM = Missing Value Source: NWS Daily Summary

Daily Weather History Graph

Daily Weather History Graph

Search for Another Location

Airport or City:

Trip Planner

Search our weather history database for the weather conditions in past years. The results will help you decide how hot, cold, wet, or windy it might be!

Date:

Astronomy

Dec. 21, 2013 Rise Set
Actual Time 7:39 AM CST 4:34 PM CST
Civil Twilight 7:06 AM CST 5:07 PM CST
Nautical Twilight 6:30 AM CST 5:44 PM CST
Astronomical Twilight 5:55 AM CST 6:19 PM CST
Moon 8:58 PM CST (12/21) 9:59 AM CST (12/21)
Length of Visible Light 10h 01m
Length of Day
8h 55m
Waning Gibbous, 84% of the Moon is Illuminated
Dec 21
Waning Gibbous
Dec 25
Last Quarter
Jan 1
New
Jan 7
First Quarter
Jan 15
Full

Hourly Weather History & Observations

Time (CST) Temp. Windchill Dew Point Humidity Pressure Visibility Wind Dir Wind Speed Gust Speed Precip Events Conditions
12:12 AM 19.9 °F - 18.3 °F 93% 29.81 in 5.0 mi Calm Calm - N/A   Overcast
12:33 AM 19.9 °F - 18.3 °F 93% 29.81 in 5.0 mi Calm Calm - N/A   Overcast
12:52 AM 20.1 °F 15.2 °F 18.5 °F 93% 29.82 in 5.0 mi NW 3.5 mph - N/A   Overcast
1:12 AM 19.9 °F 14.9 °F 18.5 °F 94% 29.81 in 4.0 mi NW 3.5 mph - N/A   Overcast
1:32 AM 19.9 °F 13.4 °F 18.3 °F 93% 29.81 in 4.0 mi NNW 4.6 mph - N/A   Overcast
1:52 AM 19.9 °F 14.9 °F 18.3 °F 93% 29.82 in 4.0 mi NNW 3.5 mph - N/A   Overcast
2:12 AM 19.9 °F 13.4 °F 18.3 °F 93% 29.84 in 4.0 mi NNW 4.6 mph - N/A   Overcast
2:32 AM 19.8 °F 14.7 °F 18.1 °F 93% 29.85 in 3.0 mi NW 3.5 mph - N/A   Overcast
2:52 AM 19.8 °F 14.7 °F 18.1 °F 93% 29.85 in 4.0 mi NNW 3.5 mph - N/A   Overcast
3:12 AM 19.8 °F 14.7 °F 18.1 °F 93% 29.84 in 4.0 mi NW 3.5 mph - N/A   Overcast
3:32 AM 19.8 °F - 18.1 °F 93% 29.82 in 4.0 mi Calm Calm - N/A   Overcast
3:52 AM 19.4 °F - 18.0 °F 94% 29.84 in 4.0 mi Calm Calm - N/A   Overcast
4:12 AM 19.4 °F 14.3 °F 18.0 °F 94% 29.82 in 5.0 mi North 3.5 mph - N/A   Overcast
4:33 AM 19.4 °F 12.8 °F 17.8 °F 93% 29.80 in 5.0 mi North 4.6 mph - N/A   Overcast
4:52 AM 19.4 °F 12.8 °F 17.8 °F 93% 29.79 in 4.0 mi North 4.6 mph - N/A   Overcast
5:12 AM 19.4 °F 12.8 °F 18.0 °F 94% 29.80 in 4.0 mi North 4.6 mph - N/A   Overcast
5:32 AM 19.4 °F 14.3 °F 18.0 °F 94% 29.81 in 3.0 mi North 3.5 mph - N/A   Overcast
5:52 AM 19.4 °F - 18.0 °F 94% 29.81 in 3.0 mi Calm Calm - N/A   Overcast
6:12 AM 19.6 °F - 18.0 °F 93% 29.84 in 4.0 mi Calm Calm - N/A   Overcast
6:32 AM 19.8 °F - 18.1 °F 93% 29.84 in 4.0 mi Calm Calm - N/A   Overcast
6:52 AM 19.8 °F 14.7 °F 18.1 °F 93% 29.84 in 4.0 mi North 3.5 mph - N/A   Overcast
7:13 AM 19.4 °F 14.3 °F 18.0 °F 94% 29.82 in 4.0 mi NNE 3.5 mph - N/A   Overcast
7:32 AM 19.4 °F 14.3 °F 18.0 °F 94% 29.82 in 4.0 mi NNE 3.5 mph - N/A   Overcast
7:53 AM 19.4 °F 14.3 °F 17.8 °F 93% 29.84 in 3.0 mi NNE 3.5 mph - N/A   Overcast
8:12 AM 19.4 °F 12.8 °F 18.0 °F 94% 29.85 in 3.0 mi North 4.6 mph - N/A   Overcast
8:33 AM 19.4 °F 11.5 °F 18.0 °F 94% 29.86 in 3.0 mi North 5.8 mph - N/A   Overcast
8:52 AM 19.8 °F 11.9 °F 18.1 °F 93% 29.87 in 3.0 mi North 5.8 mph - N/A   Overcast
9:12 AM 20.1 °F 12.3 °F 18.5 °F 93% 29.88 in 2.5 mi North 5.8 mph - N/A   Overcast
9:32 AM 20.1 °F 12.3 °F 18.5 °F 93% 29.87 in 2.5 mi North 5.8 mph - N/A   Overcast
9:52 AM 20.3 °F 13.8 °F 18.9 °F 94% 29.87 in 3.0 mi NNE 4.6 mph - N/A   Overcast
10:12 AM 20.3 °F 12.5 °F 18.9 °F 94% 29.87 in 3.0 mi NNE 5.8 mph - N/A   Overcast
10:32 AM 20.7 °F 13.0 °F 19.2 °F 94% 29.87 in 3.0 mi NNE 5.8 mph - N/A   Overcast
10:52 AM 20.8 °F 13.2 °F 19.4 °F 94% 29.87 in 4.0 mi North 5.8 mph - N/A   Overcast
11:12 AM 21.0 °F 12.4 °F 19.4 °F 93% 29.85 in 4.0 mi NNE 6.9 mph - N/A   Overcast
11:32 AM 21.4 °F 13.8 °F 20.1 °F 95% 29.84 in 5.0 mi NNE 5.8 mph - N/A   Overcast
11:52 AM 21.6 °F 14.0 °F 20.1 °F 94% 29.87 in 5.0 mi NNE 5.8 mph - N/A   Overcast
12:12 PM 21.9 °F 15.7 °F 20.3 °F 93% 29.88 in 5.0 mi NNE 4.6 mph - N/A   Overcast
12:33 PM 22.1 °F 13.7 °F 20.8 °F 95% 29.87 in 5.0 mi NNE 6.9 mph - N/A   Overcast
12:52 PM 22.3 °F 13.9 °F 21.0 °F 95% 29.88 in 5.0 mi NNE 6.9 mph - N/A   Overcast
1:13 PM 22.3 °F 13.0 °F 21.0 °F 95% 29.86 in 7.0 mi NNE 8.1 mph - N/A   Overcast
1:32 PM 22.6 °F 12.6 °F 21.2 °F 94% 29.86 in 7.0 mi NNE 9.2 mph - N/A   Overcast
1:52 PM 22.8 °F 13.6 °F 21.2 °F 93% 29.85 in 7.0 mi NNE 8.1 mph - N/A   Overcast
2:12 PM 23.0 °F 13.9 °F 21.0 °F 92% 29.85 in 7.0 mi NE 8.1 mph - N/A   Overcast
2:32 PM 23.0 °F 12.4 °F 21.0 °F 92% 29.84 in 5.0 mi NNE 10.4 mph - N/A   Overcast
2:52 PM 23.2 °F 12.6 °F 20.8 °F 91% 29.84 in 5.0 mi NNE 10.4 mph - N/A   Overcast
3:13 PM 23.5 °F 17.6 °F 21.0 °F 90% 29.86 in 5.0 mi NNE 4.6 mph - N/A   Overcast
3:32 PM 23.5 °F 14.5 °F 21.0 °F 90% 29.86 in 7.0 mi NNE 8.1 mph - N/A   Overcast
3:52 PM 23.7 °F 14.7 °F 21.2 °F 90% 29.84 in 7.0 mi NNE 8.1 mph - N/A   Overcast
4:12 PM 23.7 °F 14.0 °F 21.0 °F 89% 29.85 in 7.0 mi NNE 9.2 mph - N/A   Overcast
4:32 PM 23.9 °F 15.8 °F 21.2 °F 89% 29.87 in 7.0 mi North 6.9 mph - N/A   Overcast
4:52 PM 23.9 °F 13.5 °F 21.2 °F 89% 29.87 in 7.0 mi NNE 10.4 mph - N/A   Overcast
5:12 PM 23.7 °F 14.0 °F 21.2 °F 90% 29.85 in 7.0 mi NNE 9.2 mph - N/A   Overcast
5:32 PM 23.7 °F 14.0 °F 21.0 °F 89% 29.85 in 10.0 mi NNE 9.2 mph - N/A   Overcast
5:52 PM 23.7 °F 14.0 °F 20.8 °F 89% 29.86 in 10.0 mi NNE 9.2 mph - N/A   Overcast
6:12 PM 23.9 °F 15.0 °F 20.8 °F 88% 29.86 in 10.0 mi NNE 8.1 mph - N/A   Overcast
6:32 PM 23.9 °F 14.2 °F 20.8 °F 88% 29.87 in 10.0 mi NNE 9.2 mph - N/A   Overcast
6:52 PM 23.9 °F 14.2 °F 21.0 °F 89% 29.88 in 10.0 mi NNE 9.2 mph - N/A   Overcast
7:13 PM 23.9 °F 12.9 °F 20.7 °F 87% 29.87 in 10.0 mi NNE 11.5 mph - N/A   Overcast
7:32 PM 23.9 °F 14.2 °F 20.5 °F 87% 29.89 in 10.0 mi NNE 9.2 mph - N/A   Overcast
7:52 PM 23.7 °F 13.3 °F 20.3 °F 87% 29.88 in 10.0 mi NNE 10.4 mph 16.1 mph N/A   Overcast
8:12 PM 23.7 °F 12.6 °F 20.1 °F 86% 29.86 in 10.0 mi NNE 11.5 mph - N/A   Overcast
8:32 PM 23.4 °F 12.2 °F 19.6 °F 85% 29.82 in 10.0 mi NNE 11.5 mph - N/A   Overcast
8:52 PM 23.0 °F 10.6 °F 19.4 °F 86% 29.81 in 10.0 mi NNE 13.8 mph 18.4 mph N/A   Overcast
9:12 PM 23.4 °F 11.1 °F 19.4 °F 85% 29.81 in 10.0 mi NNE 13.8 mph 19.6 mph N/A   Overcast
9:32 PM 23.0 °F 10.6 °F 19.0 °F 85% 29.80 in 10.0 mi NNE 13.8 mph 19.6 mph N/A   Overcast
9:52 PM 23.0 °F 11.7 °F 19.0 °F 85% 29.81 in 10.0 mi NNE 11.5 mph 18.4 mph N/A   Overcast
10:12 PM 23.0 °F 11.1 °F 19.0 °F 85% 29.81 in 10.0 mi NNE 12.7 mph - N/A   Overcast
10:32 PM 23.0 °F 11.7 °F 19.2 °F 85% 29.84 in 10.0 mi NNE 11.5 mph - N/A   Overcast
10:52 PM 22.8 °F 10.9 °F 18.9 °F 85% 29.82 in 10.0 mi NNE 12.7 mph 17.3 mph N/A   Overcast
11:12 PM 22.8 °F 12.9 °F 18.9 °F 85% 29.84 in 10.0 mi North 9.2 mph - N/A   Overcast
11:32 PM 22.6 °F 13.4 °F 18.5 °F 84% 29.84 in 10.0 mi North 8.1 mph - N/A   Overcast
11:53 PM 22.6 °F 13.4 °F 18.5 °F 84% 29.82 in 10.0 mi North 8.1 mph - N/A   Overcast